createdAt,value
2022-08-21T00:00:27.483Z,16.02
2022-08-21T00:03:06.691Z,17.13
2022-08-21T00:05:41.110Z,16.58
2022-08-21T00:08:11.781Z,16.23
2022-08-21T00:13:19.016Z,15.98
2022-08-21T00:15:50.636Z,16.52
2022-08-21T00:18:21.448Z,16.70
2022-08-21T00:23:21.850Z,16.63
2022-08-21T00:25:52.793Z,15.60
2022-08-21T00:28:25.573Z,16.15
2022-08-21T00:30:55.691Z,16.63
2022-08-21T00:33:25.951Z,15.57
2022-08-21T00:35:56.570Z,15.07
2022-08-21T00:41:13.445Z,15.73
2022-08-21T00:43:54.966Z,15.77
2022-08-21T00:46:28.237Z,15.90
2022-08-21T00:48:59.414Z,16.67
2022-08-21T00:51:38.462Z,15.60
2022-08-21T00:54:15.464Z,16.17
2022-08-21T00:56:49.813Z,15.93
2022-08-21T00:59:25.302Z,16.50
2022-08-21T01:01:55.734Z,16.88
2022-08-21T01:04:28.010Z,15.82
2022-08-21T01:06:58.605Z,16.17
2022-08-21T01:09:28.992Z,16.40
2022-08-21T01:11:59.925Z,16.63
2022-08-21T01:14:33.127Z,14.55
2022-08-21T01:17:05.363Z,15.82
2022-08-21T01:19:35.904Z,15.90
2022-08-21T01:22:09.178Z,16.25
2022-08-21T01:24:39.665Z,15.30
2022-08-21T01:27:10.003Z,16.45
2022-08-21T01:29:46.328Z,16.00
2022-08-21T01:32:21.975Z,16.25
2022-08-21T01:34:55.204Z,17.38
2022-08-21T01:37:28.122Z,17.17
2022-08-21T01:39:58.406Z,16.23
2022-08-21T01:42:28.908Z,16.77
2022-08-21T01:44:59.120Z,16.73
2022-08-21T01:47:29.598Z,17.23
2022-08-21T01:49:59.746Z,17.10
2022-08-21T01:52:33.045Z,16.85
2022-08-21T01:55:03.733Z,19.02
2022-08-21T02:00:04.240Z,18.70
2022-08-21T02:02:42.370Z,18.98
2022-08-21T02:05:15.798Z,20.48
2022-08-21T02:07:51.605Z,21.60
2022-08-21T02:10:27.261Z,22.38
2022-08-21T02:12:58.317Z,22.88
2022-08-21T02:15:28.990Z,23.40
2022-08-21T02:18:02.638Z,22.60
2022-08-21T02:20:38.007Z,24.40
2022-08-21T02:23:13.790Z,25.77
2022-08-21T02:25:46.859Z,26.17
2022-08-21T02:28:18.723Z,27.48
2022-08-21T02:30:51.952Z,25.00
2022-08-21T02:33:22.584Z,26.65
2022-08-21T02:35:54.082Z,28.63
2022-08-21T02:38:31.838Z,29.08
2022-08-21T02:41:02.130Z,30.38
2022-08-21T02:43:32.887Z,28.35
2022-08-21T02:46:03.744Z,30.98
2022-08-21T02:48:36.015Z,31.63
2022-08-21T02:51:11.000Z,30.52
2022-08-21T02:53:45.252Z,29.65
2022-08-21T02:56:20.450Z,27.65
2022-08-21T02:58:54.264Z,28.65
2022-08-21T03:01:24.874Z,27.95
2022-08-21T03:03:55.209Z,27.10
2022-08-21T03:06:26.674Z,27.67
2022-08-21T03:08:59.504Z,27.23
2022-08-21T03:11:29.950Z,26.92
2022-08-21T03:14:00.476Z,27.77
2022-08-21T03:16:34.773Z,28.02
2022-08-21T03:19:05.737Z,25.08
2022-08-21T03:21:35.935Z,27.40
2022-08-21T03:24:10.087Z,27.10
2022-08-21T03:26:41.477Z,29.52
2022-08-21T03:29:11.947Z,25.35
2022-08-21T03:31:42.104Z,26.05
2022-08-21T03:34:13.076Z,27.13
2022-08-21T03:36:43.427Z,27.73
2022-08-21T03:39:16.292Z,26.15
2022-08-21T03:41:46.532Z,27.10
2022-08-21T03:44:16.809Z,24.52
2022-08-21T03:46:46.961Z,24.15
2022-08-21T03:49:17.181Z,25.83
2022-08-21T03:51:47.698Z,24.30
2022-08-21T03:54:32.141Z,22.40
2022-08-21T03:57:02.590Z,24.40
2022-08-21T03:59:32.782Z,23.25
2022-08-21T04:02:05.825Z,23.40
2022-08-21T04:04:37.224Z,22.88
2022-08-21T04:07:08.114Z,22.10
2022-08-21T04:09:40.988Z,23.58
2022-08-21T04:12:12.626Z,22.20
2022-08-21T04:14:42.928Z,21.00
2022-08-21T04:17:13.084Z,21.63
2022-08-21T04:19:43.292Z,20.10
2022-08-21T04:22:13.822Z,21.48
2022-08-21T04:24:47.206Z,23.25
2022-08-21T04:27:17.356Z,21.88
2022-08-21T04:29:47.498Z,20.95
2022-08-21T04:32:17.653Z,22.50
2022-08-21T04:34:47.918Z,21.08
2022-08-21T04:37:18.208Z,22.17
2022-08-21T04:39:53.531Z,20.98
2022-08-21T04:42:23.890Z,20.17
2022-08-21T04:44:54.376Z,21.88
2022-08-21T04:47:25.083Z,23.08
2022-08-21T04:50:15.481Z,22.90
2022-08-21T04:52:59.408Z,23.05
2022-08-21T04:55:32.662Z,23.40
2022-08-21T04:58:04.318Z,23.90
2022-08-21T05:00:34.530Z,21.77
2022-08-21T05:03:07.460Z,21.50
2022-08-21T05:05:38.291Z,23.10
2022-08-21T05:08:11.486Z,23.63
2022-08-21T05:10:45.526Z,22.88
2022-08-21T05:13:16.499Z,21.77
2022-08-21T05:15:46.678Z,21.58
2022-08-21T05:18:17.599Z,27.27
2022-08-21T05:20:48.478Z,21.88
2022-08-21T05:23:19.187Z,21.75
2022-08-21T05:28:21.917Z,20.13
2022-08-21T05:30:52.088Z,19.77
2022-08-21T05:33:22.246Z,19.15
2022-08-21T05:35:56.788Z,19.42
2022-08-21T05:38:28.320Z,17.58
2022-08-21T05:41:01.191Z,18.80
2022-08-21T05:43:31.510Z,18.30
2022-08-21T05:46:01.701Z,17.67
2022-08-21T05:48:31.879Z,18.00
2022-08-21T05:51:09.248Z,17.33
2022-08-21T05:53:39.789Z,15.63
2022-08-21T05:56:13.823Z,16.35
2022-08-21T05:58:44.486Z,16.92
2022-08-21T06:03:46.846Z,16.90
2022-08-21T06:06:17.029Z,16.27
2022-08-21T06:08:47.649Z,15.70
2022-08-21T06:11:20.919Z,15.90
2022-08-21T06:13:51.179Z,15.55
2022-08-21T06:16:22.188Z,14.98
2022-08-21T06:18:53.133Z,14.88
2022-08-21T06:21:25.990Z,14.40
2022-08-21T06:23:56.751Z,14.05
2022-08-21T06:26:30.297Z,16.60
2022-08-21T06:29:00.578Z,24.02
2022-08-21T06:31:32.330Z,13.18
2022-08-21T06:34:02.970Z,13.80
2022-08-21T06:39:02.999Z,12.97
2022-08-21T06:41:49.480Z,12.80
2022-08-21T06:44:21.147Z,11.98
2022-08-21T06:46:51.644Z,11.55
2022-08-21T06:49:21.855Z,11.77
2022-08-21T06:51:52.170Z,12.10
2022-08-21T06:54:22.344Z,13.27
2022-08-21T06:56:55.151Z,12.30
2022-08-21T06:59:25.254Z,15.27
2022-08-21T07:01:55.483Z,13.70
2022-08-21T07:04:25.706Z,12.40
2022-08-21T07:06:56.013Z,13.07
2022-08-21T07:09:26.183Z,14.07
2022-08-21T07:12:01.655Z,13.40
2022-08-21T07:14:32.020Z,13.93
2022-08-21T07:17:02.284Z,14.13
2022-08-21T07:19:32.544Z,15.40
2022-08-21T07:22:05.675Z,13.55
2022-08-21T07:24:35.766Z,13.82
2022-08-21T07:27:10.159Z,13.45
2022-08-21T07:29:40.608Z,14.00
2022-08-21T07:32:11.129Z,16.52
2022-08-21T07:34:41.394Z,14.27
2022-08-21T07:37:11.698Z,12.30
2022-08-21T07:39:41.940Z,12.45
2022-08-21T07:42:14.994Z,12.40
2022-08-21T07:44:45.453Z,12.85
2022-08-21T07:47:15.726Z,11.75
2022-08-21T07:49:59.819Z,12.38
2022-08-21T07:52:31.168Z,11.10
2022-08-21T07:55:06.101Z,11.43
2022-08-21T07:57:39.769Z,11.30
2022-08-21T08:00:14.557Z,11.10
2022-08-21T08:02:44.921Z,11.55
2022-08-21T08:05:15.596Z,10.80
2022-08-21T08:07:46.221Z,12.77
2022-08-21T08:12:49.811Z,10.60
2022-08-21T08:15:24.029Z,11.63
2022-08-21T08:17:55.946Z,11.82
2022-08-21T08:20:27.435Z,11.43
2022-08-21T08:22:58.797Z,10.80
2022-08-21T08:25:36.248Z,10.88
2022-08-21T08:28:16.478Z,11.27
2022-08-21T08:30:50.292Z,10.27
2022-08-21T08:33:21.309Z,11.10
2022-08-21T08:35:54.700Z,9.93
2022-08-21T08:38:26.720Z,9.35
2022-08-21T08:41:14.668Z,9.07
2022-08-21T08:43:55.020Z,10.20
2022-08-21T08:46:34.931Z,10.18
2022-08-21T08:49:12.390Z,11.85
2022-08-21T08:51:53.024Z,10.50
2022-08-21T08:54:32.639Z,9.00
2022-08-21T08:57:04.173Z,8.60
2022-08-21T08:59:45.986Z,8.73
2022-08-21T09:02:18.589Z,8.50
2022-08-21T09:04:52.894Z,8.18
2022-08-21T09:07:40.298Z,7.28
2022-08-21T09:10:19.715Z,7.63
2022-08-21T09:13:01.249Z,6.10
2022-08-21T09:15:44.906Z,6.07
2022-08-21T09:18:35.433Z,5.00
2022-08-21T09:23:58.299Z,11.13
2022-08-21T09:26:31.172Z,7.43
2022-08-21T09:29:04.470Z,6.40
2022-08-21T09:31:40.740Z,4.90
2022-08-21T09:34:14.893Z,5.43
2022-08-21T09:36:48.820Z,5.10
2022-08-21T09:39:29.293Z,5.00
2022-08-21T09:44:34.071Z,4.80
2022-08-21T09:47:07.093Z,5.10
2022-08-21T09:49:40.684Z,4.80
2022-08-21T09:52:23.323Z,4.32
2022-08-21T09:54:58.215Z,3.25
2022-08-21T09:57:46.351Z,3.30
2022-08-21T10:00:24.448Z,3.10
2022-08-21T10:02:57.486Z,3.10
2022-08-21T10:05:30.754Z,3.30
2022-08-21T10:08:01.036Z,3.03
2022-08-21T10:10:39.632Z,3.22
2022-08-21T10:13:17.288Z,2.83
2022-08-21T10:15:55.177Z,2.53
2022-08-21T10:18:33.410Z,2.53
2022-08-21T10:21:12.001Z,2.80
2022-08-21T10:23:58.711Z,3.80
2022-08-21T10:26:45.146Z,2.78
2022-08-21T10:29:29.942Z,2.92
2022-08-21T10:32:25.967Z,2.60
2022-08-21T10:35:12.420Z,2.45
2022-08-21T10:38:02.714Z,3.00
2022-08-21T10:40:40.901Z,2.03
2022-08-21T10:43:27.970Z,2.80
2022-08-21T10:46:11.312Z,2.53
2022-08-21T10:48:50.827Z,2.15
2022-08-21T10:51:35.550Z,2.72
2022-08-21T10:54:14.253Z,2.30
2022-08-21T10:56:45.756Z,2.40
2022-08-21T10:59:38.091Z,2.30
2022-08-21T11:02:19.623Z,2.90
2022-08-21T11:04:58.366Z,2.10
2022-08-21T11:07:37.125Z,2.13
2022-08-21T11:10:17.418Z,2.40
2022-08-21T11:12:57.299Z,2.20
2022-08-21T11:15:43.024Z,2.28
2022-08-21T11:18:26.170Z,2.42
2022-08-21T11:21:08.538Z,2.00
2022-08-21T11:23:50.690Z,2.33
2022-08-21T11:26:32.227Z,2.10
2022-08-21T11:29:12.664Z,2.17
2022-08-21T11:31:59.429Z,2.58
2022-08-21T11:34:47.071Z,2.17
2022-08-21T11:37:28.234Z,2.72
2022-08-21T11:40:10.293Z,1.92
2022-08-21T11:42:51.473Z,2.28
2022-08-21T11:45:45.812Z,2.25
2022-08-21T11:48:33.940Z,3.10
2022-08-21T11:51:08.571Z,2.25
2022-08-21T11:53:54.075Z,2.17
2022-08-21T11:56:34.145Z,2.22
2022-08-21T11:59:10.631Z,2.75
2022-08-21T12:01:47.428Z,2.72
2022-08-21T12:04:32.323Z,2.47
2022-08-21T12:07:16.855Z,2.22
2022-08-21T12:09:58.953Z,2.20
2022-08-21T12:12:35.124Z,2.13
2022-08-21T12:15:20.370Z,2.95
2022-08-21T12:18:04.133Z,2.33
2022-08-21T12:20:50.837Z,2.50
2022-08-21T12:23:30.065Z,2.50
2022-08-21T12:26:22.293Z,2.55
2022-08-21T12:28:55.238Z,1.90
2022-08-21T12:31:32.185Z,2.40
2022-08-21T12:34:05.130Z,2.40
2022-08-21T12:36:47.964Z,2.50
2022-08-21T12:39:23.319Z,1.90
2022-08-21T12:42:01.948Z,1.92
2022-08-21T12:44:42.914Z,2.00
2022-08-21T12:47:21.935Z,2.42
2022-08-21T12:50:02.567Z,2.60
2022-08-21T12:52:39.614Z,2.30
2022-08-21T12:55:16.849Z,2.28
2022-08-21T12:57:47.068Z,2.20
2022-08-21T13:00:26.844Z,2.58
2022-08-21T13:02:59.414Z,2.30
2022-08-21T13:05:37.845Z,2.13
2022-08-21T13:08:10.395Z,2.45
2022-08-21T13:10:43.540Z,2.33
2022-08-21T13:13:25.640Z,1.77
2022-08-21T13:16:08.800Z,2.50
2022-08-21T13:19:00.423Z,2.60
2022-08-21T13:21:36.400Z,2.10
2022-08-21T13:24:42.951Z,2.38
2022-08-21T13:27:24.833Z,2.00
2022-08-21T13:30:09.193Z,2.00
2022-08-21T13:32:47.166Z,2.22
2022-08-21T13:35:21.381Z,2.67
2022-08-21T13:37:53.489Z,2.45
2022-08-21T13:40:32.643Z,2.42
2022-08-21T13:43:04.866Z,2.30
2022-08-21T13:45:37.124Z,2.50
2022-08-21T13:48:10.010Z,2.30
2022-08-21T13:50:42.366Z,2.25
2022-08-21T13:53:27.967Z,2.30
2022-08-21T13:56:00.687Z,2.10
2022-08-21T13:58:34.343Z,2.20
2022-08-21T14:01:06.662Z,2.40
2022-08-21T14:03:45.687Z,2.35
2022-08-21T14:06:17.212Z,2.37
2022-08-21T14:08:55.493Z,2.47
2022-08-21T14:11:26.781Z,2.08
2022-08-21T14:14:04.862Z,2.10
2022-08-21T14:16:48.039Z,2.50
2022-08-21T14:19:28.588Z,2.30
2022-08-21T14:21:59.029Z,2.58
2022-08-21T14:24:35.759Z,2.65
2022-08-21T14:27:10.040Z,2.50
2022-08-21T14:29:44.521Z,2.30
2022-08-21T14:32:21.627Z,2.78
2022-08-21T14:35:01.160Z,2.88
2022-08-21T14:37:31.483Z,2.20
2022-08-21T14:40:02.487Z,2.72
2022-08-21T14:42:33.104Z,2.22
2022-08-21T14:45:09.171Z,2.10
2022-08-21T14:47:39.340Z,2.30
2022-08-21T14:50:13.975Z,2.72
2022-08-21T14:52:46.728Z,2.60
2022-08-21T14:55:19.815Z,2.50
2022-08-21T14:57:54.487Z,2.20
2022-08-21T15:00:36.036Z,2.70
2022-08-21T15:03:06.768Z,6.78
2022-08-21T15:05:40.502Z,12.68
2022-08-21T15:08:10.974Z,28.73
2022-08-21T15:10:57.108Z,4.28
2022-08-21T15:13:32.233Z,3.25
2022-08-21T15:16:02.975Z,2.60
2022-08-21T15:18:34.535Z,2.55
2022-08-21T15:21:07.604Z,2.80
2022-08-21T15:23:39.949Z,2.35
2022-08-21T15:26:14.205Z,2.15
2022-08-21T15:28:44.967Z,2.40
2022-08-21T15:31:15.168Z,2.53
2022-08-21T15:33:45.439Z,2.40
2022-08-21T15:36:18.224Z,2.60
2022-08-21T15:38:49.607Z,2.83
2022-08-21T15:41:19.955Z,2.25
2022-08-21T15:43:55.560Z,2.53
2022-08-21T15:46:25.932Z,2.20
2022-08-21T15:48:59.735Z,2.40
2022-08-21T15:51:32.968Z,2.55
2022-08-21T15:54:03.740Z,2.20
2022-08-21T15:56:40.256Z,2.13
2022-08-21T15:59:16.921Z,2.40
2022-08-21T16:01:47.821Z,2.22
2022-08-21T16:04:27.985Z,2.30
2022-08-21T16:09:37.911Z,3.77
2022-08-21T16:14:39.987Z,3.38
2022-08-21T16:17:10.724Z,2.90
2022-08-21T16:19:41.465Z,2.92
2022-08-21T16:22:14.320Z,2.30
2022-08-21T16:24:44.679Z,2.85
2022-08-21T16:27:15.337Z,2.15
2022-08-21T16:29:48.732Z,2.35
2022-08-21T16:32:20.265Z,2.30
2022-08-21T16:34:52.709Z,2.22
2022-08-21T16:37:27.344Z,2.33
2022-08-21T16:39:57.673Z,2.20
2022-08-21T16:44:59.668Z,2.10
2022-08-21T16:47:29.909Z,2.20
2022-08-21T16:52:32.632Z,1.80
2022-08-21T16:55:02.798Z,2.35
2022-08-21T16:57:33.012Z,3.40
2022-08-21T17:00:04.877Z,2.60
2022-08-21T17:02:39.886Z,2.42
2022-08-21T17:05:13.984Z,2.08
2022-08-21T17:07:47.716Z,1.90
2022-08-21T17:10:19.661Z,2.20
2022-08-21T17:12:56.550Z,2.00
2022-08-21T17:15:31.279Z,2.33
2022-08-21T17:18:02.215Z,2.00
2022-08-21T17:20:33.278Z,2.10
2022-08-21T17:23:06.665Z,2.75
2022-08-21T17:25:37.622Z,2.00
2022-08-21T17:28:07.946Z,2.70
2022-08-21T17:30:42.898Z,2.00
2022-08-21T17:33:13.235Z,2.22
2022-08-21T17:35:46.719Z,2.35
2022-08-21T17:38:19.619Z,2.17
2022-08-21T17:40:51.160Z,40.00
2022-08-21T17:43:21.859Z,9.30
2022-08-21T17:45:52.150Z,4.60
2022-08-21T17:48:25.529Z,3.65
2022-08-21T17:50:55.941Z,6.63
2022-08-21T17:53:28.816Z,3.15
2022-08-21T17:55:59.395Z,2.80
2022-08-21T17:58:29.802Z,2.20
2022-08-21T18:01:00.364Z,2.50
2022-08-21T18:03:30.632Z,2.00
2022-08-21T18:06:07.889Z,2.13
2022-08-21T18:08:40.683Z,2.20
2022-08-21T18:11:23.772Z,2.92
2022-08-21T18:13:55.940Z,1.90
2022-08-21T18:16:26.725Z,1.92
2022-08-21T18:18:57.834Z,2.35
2022-08-21T18:21:28.784Z,2.10
2022-08-21T18:24:01.910Z,2.08
2022-08-21T18:26:35.821Z,2.40
2022-08-21T18:29:12.165Z,2.28
2022-08-21T18:31:46.395Z,2.40
2022-08-21T18:34:28.079Z,2.10
2022-08-21T18:36:59.957Z,2.35
2022-08-21T18:39:36.739Z,2.40
2022-08-21T18:42:13.606Z,2.33
2022-08-21T18:44:47.908Z,2.25
2022-08-21T18:47:26.006Z,2.40
2022-08-21T18:49:56.714Z,2.20
2022-08-21T18:52:28.567Z,2.20
2022-08-21T18:55:05.888Z,2.40
2022-08-21T18:57:40.005Z,16.65
2022-08-21T19:00:15.472Z,7.00
2022-08-21T19:02:46.488Z,3.45
2022-08-21T19:05:20.210Z,2.60
2022-08-21T19:07:55.232Z,2.72
2022-08-21T19:10:29.567Z,3.13
2022-08-21T19:13:04.175Z,3.00
2022-08-21T19:15:39.932Z,2.75
2022-08-21T19:18:21.398Z,2.42
2022-08-21T19:20:59.165Z,2.22
2022-08-21T19:23:31.328Z,2.20
2022-08-21T19:26:11.123Z,2.40
2022-08-21T19:28:49.188Z,2.40
2022-08-21T19:31:23.611Z,2.20
2022-08-21T19:34:01.518Z,2.72
2022-08-21T19:36:49.736Z,2.17
2022-08-21T19:39:21.458Z,2.17
2022-08-21T19:41:58.202Z,2.25
2022-08-21T19:44:32.084Z,1.83
2022-08-21T19:47:09.238Z,2.30
2022-08-21T19:49:46.562Z,2.03
2022-08-21T19:52:18.359Z,2.17
2022-08-21T19:54:49.280Z,2.45
2022-08-21T19:57:22.833Z,3.10
2022-08-21T19:59:53.406Z,3.40
2022-08-21T20:02:25.542Z,2.40
2022-08-21T20:04:56.047Z,2.67
2022-08-21T20:07:27.131Z,2.22
2022-08-21T20:09:57.851Z,2.47
2022-08-21T20:15:02.011Z,4.85
2022-08-21T20:17:32.464Z,2.75
2022-08-21T20:20:02.937Z,2.50
2022-08-21T20:22:33.767Z,1.83
2022-08-21T20:25:04.318Z,2.28
2022-08-21T20:27:41.293Z,2.20
2022-08-21T20:30:14.145Z,2.58
2022-08-21T20:32:44.547Z,2.00
2022-08-21T20:35:15.675Z,2.10
2022-08-21T20:37:45.977Z,2.22
2022-08-21T20:40:33.006Z,2.10
2022-08-21T20:43:07.437Z,2.00
2022-08-21T20:45:43.418Z,1.85
2022-08-21T20:51:00.852Z,1.77
2022-08-21T20:53:43.773Z,1.92
2022-08-21T20:56:28.349Z,2.00
2022-08-21T20:59:13.638Z,2.10
2022-08-21T21:01:46.287Z,1.90
2022-08-21T21:04:37.049Z,2.35
2022-08-21T21:07:12.556Z,1.95
2022-08-21T21:09:49.257Z,1.90
2022-08-21T21:12:28.029Z,2.13
2022-08-21T21:15:10.090Z,2.10
2022-08-21T21:17:49.133Z,1.90
2022-08-21T21:20:29.350Z,1.80
2022-08-21T21:23:16.778Z,2.40
2022-08-21T21:26:01.236Z,2.10
2022-08-21T21:28:44.410Z,2.20
2022-08-21T21:31:18.107Z,2.58
2022-08-21T21:33:50.464Z,2.40
2022-08-21T21:36:32.571Z,2.10
2022-08-21T21:39:13.190Z,2.10
2022-08-21T21:41:54.305Z,1.80
2022-08-21T21:44:43.172Z,2.00
2022-08-21T21:47:27.171Z,1.97
2022-08-21T21:50:23.278Z,2.10
2022-08-21T21:53:15.340Z,2.38
2022-08-21T21:56:08.416Z,1.95
2022-08-21T22:02:01.110Z,1.70
2022-08-21T22:04:51.121Z,2.30
2022-08-21T22:07:32.265Z,2.30
2022-08-21T22:13:13.094Z,2.05
2022-08-21T22:15:55.815Z,1.85
2022-08-21T22:18:30.064Z,1.90
2022-08-21T22:21:13.773Z,2.15
2022-08-21T22:23:49.210Z,2.90
2022-08-21T22:26:25.795Z,1.95
2022-08-21T22:28:57.430Z,1.98
2022-08-21T22:31:31.434Z,2.13
2022-08-21T22:34:17.638Z,3.13
2022-08-21T22:36:59.526Z,2.03
2022-08-21T22:39:38.802Z,2.00
2022-08-21T22:42:14.035Z,1.90
2022-08-21T22:44:53.586Z,2.10
2022-08-21T22:47:30.086Z,2.47
2022-08-21T22:50:04.733Z,2.08
2022-08-21T22:52:40.607Z,1.88
2022-08-21T22:55:26.230Z,2.50
2022-08-21T22:58:14.166Z,1.95
2022-08-21T23:00:57.831Z,2.58
2022-08-21T23:03:34.516Z,1.95
2022-08-21T23:06:12.638Z,2.45
2022-08-21T23:08:46.346Z,2.33
2022-08-21T23:11:24.436Z,2.17
2022-08-21T23:13:57.216Z,2.15
2022-08-21T23:16:47.406Z,2.10
2022-08-21T23:19:38.135Z,1.85
2022-08-21T23:22:38.785Z,2.30
2022-08-21T23:25:46.020Z,2.30
2022-08-21T23:28:29.518Z,2.30
2022-08-21T23:31:13.357Z,2.20
2022-08-21T23:34:05.974Z,2.50
2022-08-21T23:37:06.841Z,2.38
2022-08-21T23:40:11.280Z,2.40
2022-08-21T23:43:04.575Z,2.25
2022-08-21T23:48:46.833Z,2.15
2022-08-21T23:51:26.020Z,2.20
2022-08-21T23:54:08.216Z,2.58
2022-08-21T23:57:00.268Z,2.10
2022-08-21T23:59:46.953Z,2.20
